Time;durP1;ratioP1;P1;durP2;ratioP2;P2;SDS_P1;SDS_P2;PMS_P1;PMS_P2;Temp;Humidity;BMP_temperature;BMP_pressure;BME280_temperature;BME280_humidity;BME280_pressure;Samples;Min_cycle;Max_cycle;Signal;HPM_P1;HPM_P2
2022/01/28 00:00:49;;;;;;;23.95;2.00;;;;;;;6.23;79.28;103010.75;5001010;28;20052;-40
2022/01/28 00:03:05;;;;;;;25.38;2.45;;;;;;;6.22;79.40;103018.91;5012321;28;20104;-41
2022/01/28 00:05:31;;;;;;;27.67;3.10;;;;;;;6.24;79.13;103015.16;5031955;28;20017;-41
2022/01/28 00:07:57;;;;;;;36.13;2.67;;;;;;;6.25;79.44;103016.88;5030444;28;20496;-41
2022/01/28 00:10:24;;;;;;;25.50;2.33;;;;;;;6.22;79.74;103022.41;5032261;28;20029;-41
2022/01/28 00:15:29;;;;;;;35.28;2.72;;;;;;;6.23;80.32;103034.81;5031318;28;20251;-40
2022/01/28 00:39:33;;;;;;;29.90;2.28;;;;;;;6.31;83.31;103027.16;5032069;28;20040;-40
2022/01/28 00:41:58;;;;;;;24.73;2.38;;;;;;;6.29;83.77;103021.06;5028560;28;20061;-40
2022/01/28 00:44:24;;;;;;;28.17;2.65;;;;;;;6.29;83.51;103018.41;5019930;28;20375;-40
2022/01/28 00:46:49;;;;;;;26.33;3.05;;;;;;;6.32;83.75;103023.53;5029264;28;20029;-41
2022/01/28 00:49:15;;;;;;;30.88;2.38;;;;;;;6.32;83.81;103023.53;5012191;28;20029;-39
2022/01/28 00:51:40;;;;;;;29.20;2.72;;;;;;;6.28;84.55;103038.06;5012169;28;20025;-40
2022/01/28 00:54:05;;;;;;;48.47;3.17;;;;;;;6.30;84.68;103044.16;5029224;28;20422;-39
2022/01/28 00:56:31;;;;;;;33.30;2.53;;;;;;;6.30;84.91;103038.81;5031736;28;20037;-40
2022/01/28 00:58:56;;;;;;;25.08;2.03;;;;;;;6.34;85.23;103037.66;5015212;28;20034;-41
2022/01/28 01:01:22;;;;;;;40.88;2.83;;;;;;;6.41;85.20;103039.94;5031516;28;20029;-41
2022/01/28 01:03:47;;;;;;;36.80;3.92;;;;;;;6.40;84.85;103043.56;5025097;28;20029;-40
2022/01/28 01:06:13;;;;;;;35.47;2.33;;;;;;;6.36;85.46;103038.41;5030669;28;20116;-41
2022/01/28 01:08:38;;;;;;;26.45;2.58;;;;;;;6.35;85.46;103042.06;5029867;28;20036;-41
2022/01/28 01:11:04;;;;;;;27.45;2.80;;;;;;;6.33;85.65;103041.28;5031581;28;20056;-41
2022/01/28 01:13:34;;;;;;;43.17;3.50;;;;;;;6.32;85.49;103044.94;5030116;28;20032;-40
2022/01/28 01:16:01;;;;;;;40.72;3.60;;;;;;;6.32;85.69;103049.44;5029822;28;20029;-40
2022/01/28 01:18:37;;;;;;;37.45;2.90;;;;;;;6.32;85.82;103054.78;5031509;28;20029;-41
2022/01/28 01:21:10;;;;;;;32.15;2.40;;;;;;;6.27;85.93;103055.06;5031533;28;20501;-40
2022/01/28 01:23:39;;;;;;;28.85;2.53;;;;;;;6.24;86.39;103055.28;5024416;28;20160;-41
2022/01/28 01:28:34;;;;;;;51.75;3.33;;;;;;;6.22;86.56;103065.22;5031453;28;20045;-41
2022/01/28 01:31:02;;;;;;;46.50;3.53;;;;;;;6.26;86.37;103069.38;5031159;28;20486;-41
2022/01/28 01:33:30;;;;;;;36.50;2.85;;;;;;;6.26;86.62;103084.56;5029968;28;20500;-41
2022/01/28 01:35:58;;;;;;;38.20;2.80;;;;;;;6.31;87.10;103087.81;5029901;28;20580;-41
2022/01/28 01:38:26;;;;;;;31.15;2.30;;;;;;;6.37;86.93;103085.63;5031518;28;20128;-41
2022/01/28 01:40:55;;;;;;;29.02;2.45;;;;;;;6.42;86.30;103098.66;5031263;28;20030;-41
2022/01/28 01:46:01;;;;;;;;;;;;;;;6.49;86.89;103099.13;5031265;28;20513;-41
2022/01/28 01:53:58;;;;;;;46.50;3.33;;;;;;;6.66;88.17;103101.59;5033108;28;20041;-40
2022/01/28 01:56:23;;;;;;;37.17;2.90;;;;;;;6.70;88.18;103126.31;5034611;28;20080;-41
2022/01/28 01:58:49;;;;;;;41.55;2.55;;;;;;;6.68;88.34;103123.72;5033254;28;20021;-41
2022/01/28 02:01:15;;;;;;;46.35;3.42;;;;;;;6.71;88.38;103120.84;5034669;28;20443;-41
2022/01/28 02:03:40;;;;;;;40.17;2.97;;;;;;;6.71;87.97;103126.19;5032411;28;20171;-41
2022/01/28 02:06:05;;;;;;;30.50;2.53;;;;;;;6.67;86.47;103126.53;5025103;28;20049;-41
2022/01/28 02:08:32;;;;;;;33.08;3.13;;;;;;;6.62;86.01;103110.75;5034361;28;20065;-41
2022/01/28 02:10:58;;;;;;;32.80;2.75;;;;;;;6.55;85.24;103110.28;5034503;28;20032;-41
2022/01/28 02:13:25;;;;;;;21.58;2.30;;;;;;;6.49;86.04;103118.72;5033935;28;20473;-41
2022/01/28 02:15:51;;;;;;;19.00;2.63;;;;;;;6.41;86.58;103117.50;5032872;28;20037;-41
2022/01/28 02:18:16;;;;;;;30.73;3.15;;;;;;;6.35;87.33;103114.28;5034490;28;20029;-40
2022/01/28 02:20:47;;;;;;;30.00;3.42;;;;;;;6.31;87.93;103104.72;5034106;28;20025;-41
2022/01/28 02:23:12;;;;;;;32.03;4.03;;;;;;;6.28;88.14;103112.94;5029365;28;20033;-41
2022/01/28 02:25:37;;;;;;;25.70;3.47;;;;;;;6.24;88.43;103100.75;5034263;28;20032;-41
2022/01/28 02:28:06;;;;;;;28.15;3.38;;;;;;;6.23;88.52;103109.69;5034167;28;20033;-40
2022/01/28 02:30:31;;;;;;;;;;;;;;;6.24;88.88;103114.09;5034223;28;20041;-42
2022/01/28 02:33:02;;;;;;;42.92;3.92;;;;;;;6.24;88.94;103114.09;5026275;28;19914;-40
2022/01/28 02:35:28;;;;;;;36.10;3.45;;;;;;;6.19;89.20;103120.69;5023262;28;20095;-41
2022/01/28 02:37:53;;;;;;;31.67;4.32;;;;;;;6.18;89.45;103127.84;5029981;28;20029;-40
2022/01/28 02:40:19;;;;;;;33.03;3.70;;;;;;;6.21;88.92;103124.97;5034197;28;20034;-41
2022/01/28 02:43:02;;;;;;;30.80;3.22;;;;;;;6.17;88.79;103134.16;5032968;28;20056;-42
2022/01/28 02:45:38;;;;;;;31.15;3.75;;;;;;;6.12;89.00;103136.25;5033615;28;20033;-41
2022/01/28 02:48:08;;;;;;;25.50;3.58;;;;;;;6.06;88.77;103133.97;5024205;28;20026;-41
2022/01/28 02:51:21;;;;;;;17.55;2.50;;;;;;;6.00;88.79;103134.34;5034164;28;20036;-41
2022/01/28 02:53:25;;;;;;;28.15;2.38;;;;;;;6.00;88.41;103139.69;5011312;28;20075;-40
2022/01/28 02:55:58;;;;;;;21.95;2.50;;;;;;;6.07;87.32;103139.22;5014429;28;20116;-41
2022/01/28 02:58:25;;;;;;;33.22;5.18;;;;;;;6.06;86.44;103132.16;5031785;28;20460;-40
2022/01/28 03:00:52;;;;;;;33.70;2.20;;;;;;;6.01;86.25;103146.78;5032006;28;20060;-40
2022/01/28 03:03:19;;;;;;;26.58;2.17;;;;;;;5.99;85.77;103154.03;5034061;28;20319;-41
2022/01/28 03:05:45;;;;;;;20.67;2.58;;;;;;;5.96;85.79;103148.88;5033904;28;20027;-41
2022/01/28 03:08:12;;;;;;;25.73;2.50;;;;;;;5.97;85.37;103151.44;5033067;28;20155;-41
2022/01/28 03:13:17;;;;;;;31.15;3.05;;;;;;;5.92;84.04;103162.41;5034250;28;20052;-41
2022/01/28 03:15:46;;;;;;;29.67;2.35;;;;;;;5.88;84.18;103158.19;5014763;28;20040;-41
2022/01/28 03:18:19;;;;;;;24.65;2.42;;;;;;;5.86;83.55;103164.56;5028361;28;20030;-41
2022/01/28 03:20:58;;;;;;;22.77;2.28;;;;;;;5.84;83.18;103156.63;5033852;28;20060;-41
2022/01/28 03:23:23;;;;;;;23.63;2.08;;;;;;;5.88;82.38;103154.66;5032737;28;20029;-41
2022/01/28 03:25:50;;;;;;;24.38;2.88;;;;;;;5.88;82.31;103147.50;5033464;28;20025;-42
2022/01/28 03:28:18;;;;;;;26.73;1.98;;;;;;;5.90;80.91;103142.06;5031373;28;20033;-41
2022/01/28 03:30:44;;;;;;;29.55;3.50;;;;;;;5.85;81.25;103147.69;5033220;28;20397;-41
2022/01/28 03:33:09;;;;;;;21.20;1.80;;;;;;;5.86;80.44;103159.22;5032898;28;20033;-41
2022/01/28 03:35:35;;;;;;;30.25;2.08;;;;;;;5.86;80.19;103152.06;5032957;28;20030;-40
2022/01/28 03:38:03;;;;;;;28.58;3.58;;;;;;;5.80;80.23;103154.28;5030949;28;20057;-39
2022/01/28 03:40:36;;;;;;;26.08;2.50;;;;;;;5.81;80.30;103145.28;5033323;28;20022;-40
2022/01/28 03:43:02;;;;;;;25.60;2.97;;;;;;;5.83;79.43;103162.09;5032736;28;20106;-41
2022/01/28 03:45:28;;;;;;;32.78;3.70;;;;;;;5.82;79.68;103171.94;5032585;28;20503;-40
2022/01/28 03:47:53;;;;;;;25.10;2.40;;;;;;;5.83;79.49;103168.28;5026082;28;20041;-40
2022/01/28 03:50:19;;;;;;;30.73;3.00;;;;;;;5.83;79.76;103170.97;5032832;28;20033;-40
2022/01/28 03:52:44;;;;;;;25.17;2.08;;;;;;;5.77;80.05;103163.34;5031391;28;20061;-40
2022/01/28 03:55:09;;;;;;;37.40;2.42;;;;;;;5.77;80.20;103162.47;5031611;28;20481;-40
2022/01/28 03:57:35;;;;;;;23.83;2.40;;;;;;;5.76;80.70;103168.75;5032540;28;20413;-40
2022/01/28 04:00:01;;;;;;;32.08;3.35;;;;;;;5.73;81.11;103176.00;5030434;28;20037;-40
2022/01/28 04:02:30;;;;;;;33.05;2.35;;;;;;;5.72;80.38;103170.78;5032061;28;20021;-41
2022/01/28 04:12:52;;;;;;;23.02;2.50;;;;;;;5.78;79.65;103183.75;5012631;28;20140;-41
2022/01/28 04:15:37;;;;;;;17.45;2.03;;;;;;;5.79;79.44;103180.09;5017547;28;20041;-41
2022/01/28 04:18:03;;;;;;;23.55;2.10;;;;;;;5.69;80.58;103181.66;5015517;28;20037;-41
2022/01/28 04:20:30;;;;;;;22.17;2.47;;;;;;;5.64;80.22;103181.06;5030958;28;20477;-41
2022/01/28 04:22:56;;;;;;;21.83;2.35;;;;;;;5.61;80.98;103186.56;5030769;28;20036;-41
2022/01/28 04:25:21;;;;;;;28.35;2.25;;;;;;;5.57;80.31;103190.38;5032610;28;20026;-41
2022/01/28 04:27:47;;;;;;;20.60;1.88;;;;;;;5.61;80.34;103191.91;5031927;28;20405;-41
2022/01/28 04:30:12;;;;;;;26.50;2.13;;;;;;;5.60;80.00;103190.19;5031382;28;20029;-41
2022/01/28 04:32:39;;;;;;;34.17;2.35;;;;;;;5.61;79.87;103186.56;5032053;28;20029;-41
2022/01/28 04:35:05;;;;;;;23.70;2.30;;;;;;;5.55;80.40;103192.28;5032335;28;20024;-42
2022/01/28 04:45:10;;;;;;;;;;;;;;;5.55;80.11;103206.50;5032217;28;20052;-42
2022/01/28 04:47:57;;;;;;;24.45;1.58;;;;;;;5.53;80.59;103212.88;5032175;28;19924;-41
2022/01/28 04:50:35;;;;;;;26.33;2.55;;;;;;;5.50;80.52;103205.91;5031929;28;20029;-41
2022/01/28 04:56:02;;;;;;;15.05;1.88;;;;;;;5.49;81.02;103205.06;5031211;28;20096;-41
2022/01/28 05:03:54;;;;;;;21.52;2.17;;;;;;;5.40;81.76;103199.41;5027351;28;20065;-40
2022/01/28 05:06:46;;;;;;;30.42;2.80;;;;;;;5.45;82.52;103206.19;5030772;28;20033;-40
2022/01/28 05:15:28;;;;;;;40.63;2.63;;;;;;;5.43;83.62;103215.25;5030317;28;20036;-41
2022/01/28 05:26:01;;;;;;;52.97;3.47;;;;;;;5.40;85.94;103226.13;5034147;28;20079;-40
2022/01/28 05:28:26;;;;;;;22.35;3.00;;;;;;;5.35;86.20;103231.72;5034959;28;20516;-41
2022/01/28 05:30:52;;;;;;;32.08;3.03;;;;;;;5.31;86.48;103229.31;5032608;28;20132;-39
2022/01/28 05:33:17;;;;;;;29.70;2.83;;;;;;;5.26;87.07;103237.56;5033067;28;20111;-42
2022/01/28 05:35:42;;;;;;;36.72;4.05;;;;;;;5.26;87.10;103235.75;5034345;28;20052;-41
2022/01/28 05:38:07;;;;;;;34.60;2.92;;;;;;;5.33;86.68;103236.28;5034673;28;20068;-41
2022/01/28 05:40:33;;;;;;;25.38;3.05;;;;;;;5.41;86.12;103227.81;5033228;28;20108;-41
2022/01/28 05:42:58;;;;;;;25.55;2.38;;;;;;;5.42;85.57;103230.38;5024614;28;20076;-40
2022/01/28 05:45:23;;;;;;;30.52;2.60;;;;;;;5.44;85.21;103233.84;5034909;28;20048;-40
2022/01/28 05:47:49;;;;;;;24.08;1.90;;;;;;;5.38;85.52;103239.53;5034437;28;20040;-40
2022/01/28 05:50:14;;;;;;;20.65;2.10;;;;;;;5.43;85.16;103236.63;5033995;28;20487;-41
2022/01/28 05:52:40;;;;;;;26.65;2.95;;;;;;;5.35;85.19;103236.22;5031968;28;20483;-41
2022/01/28 05:55:06;;;;;;;24.00;2.40;;;;;;;5.34;85.38;103234.47;5033590;28;20030;-42
2022/01/28 05:57:31;;;;;;;30.58;3.63;;;;;;;5.26;85.53;103245.59;5033852;28;20057;-40
2022/01/28 05:59:56;;;;;;;27.52;2.03;;;;;;;5.26;85.83;103259.78;5033183;28;20106;-39
2022/01/28 06:02:21;;;;;;;39.80;2.88;;;;;;;5.22;85.46;103262.75;5033192;28;20029;-41
2022/01/28 06:04:47;;;;;;;23.25;2.28;;;;;;;5.30;85.07;103267.66;5033282;28;20143;-39
2022/01/28 06:07:12;;;;;;;25.10;2.85;;;;;;;5.32;84.73;103271.06;5034455;28;20021;-40
2022/01/28 06:09:38;;;;;;;25.23;3.30;;;;;;;5.27;84.89;103271.34;5032804;28;20025;-40
2022/01/28 06:12:04;;;;;;;22.23;2.40;;;;;;;5.27;84.93;103269.53;5031162;28;20056;-41
2022/01/28 06:14:29;;;;;;;32.50;2.53;;;;;;;5.31;84.59;103270.22;5032355;28;20048;-40
2022/01/28 06:16:54;;;;;;;19.55;2.15;;;;;;;5.24;84.69;103277.72;5035142;28;20030;-40
2022/01/28 06:19:20;;;;;;;25.95;2.42;;;;;;;5.23;85.18;103285.81;5024948;28;20025;-40
2022/01/28 06:21:45;;;;;;;32.15;2.45;;;;;;;5.20;85.03;103283.31;5026577;28;20037;-40
2022/01/28 06:24:10;;;;;;;30.40;2.67;;;;;;;5.22;85.02;103289.44;5030639;28;20107;-40
2022/01/28 06:26:36;;;;;;;29.27;2.40;;;;;;;5.23;84.73;103294.69;5033840;28;20084;-39
2022/01/28 06:29:01;;;;;;;26.40;2.42;;;;;;;5.20;84.72;103296.66;5030769;28;20413;-40
2022/01/28 06:31:26;;;;;;;30.20;2.30;;;;;;;5.19;84.80;103292.28;5030011;28;20478;-40
2022/01/28 06:33:52;;;;;;;27.00;2.95;;;;;;;5.17;84.66;103292.38;5028564;28;20033;-39
2022/01/28 06:36:19;;;;;;;40.15;2.22;;;;;;;5.18;84.48;103298.56;5029663;28;20404;-41
2022/01/28 06:38:45;;;;;;;24.27;2.40;;;;;;;5.14;84.42;103299.69;5032339;28;20047;-41
2022/01/28 06:41:10;;;;;;;26.23;4.00;;;;;;;5.12;84.92;103307.78;5033704;28;20474;-40
2022/01/28 06:43:36;;;;;;;25.27;2.60;;;;;;;5.09;84.69;103312.44;5033264;28;20045;-40
2022/01/28 06:46:01;;;;;;;28.83;2.72;;;;;;;5.09;85.03;103318.63;5019772;28;20030;-39
2022/01/28 06:48:26;;;;;;;25.98;2.30;;;;;;;5.06;84.58;103325.00;5028511;28;20033;-40
2022/01/28 06:50:51;;;;;;;25.88;2.15;;;;;;;4.98;84.74;103329.91;5032897;28;20091;-42
2022/01/28 06:53:17;;;;;;;21.45;2.33;;;;;;;4.91;85.57;103333.00;5031745;28;20060;-40
2022/01/28 06:55:43;;;;;;;27.85;3.13;;;;;;;4.87;85.83;103334.97;5032115;28;20430;-41
2022/01/28 06:58:09;;;;;;;40.10;3.00;;;;;;;4.84;86.17;103337.78;5017958;28;20045;-41
2022/01/28 07:00:40;;;;;;;22.33;2.92;;;;;;;4.88;86.00;103346.50;5022162;28;20029;-42
2022/01/28 07:03:06;;;;;;;36.72;2.72;;;;;;;4.86;85.52;103343.91;5031493;28;20106;-41
2022/01/28 07:05:32;;;;;;;25.83;2.55;;;;;;;4.78;85.62;103351.47;5044975;28;20029;-41
2022/01/28 07:07:57;;;;;;;18.15;2.38;;;;;;;4.76;86.36;103358.69;5030278;28;20481;-42
2022/01/28 07:10:23;;;;;;;27.33;2.85;;;;;;;4.74;86.72;103363.22;5031848;28;20040;-41
2022/01/28 07:12:49;;;;;;;29.75;2.60;;;;;;;4.68;86.87;103361.75;5030507;28;20350;-41
2022/01/28 07:15:15;;;;;;;22.70;2.70;;;;;;;4.68;86.83;103361.75;5031158;28;20037;-41
2022/01/28 07:17:40;;;;;;;21.38;2.38;;;;;;;4.65;86.87;103353.91;5032865;28;20420;-42
2022/01/28 07:20:06;;;;;;;24.77;2.92;;;;;;;4.65;87.22;103359.25;5027688;28;20132;-41
2022/01/28 07:22:32;;;;;;;28.20;2.78;;;;;;;4.68;86.96;103360.91;5033215;28;20473;-42
2022/01/28 07:24:57;;;;;;;27.92;4.60;;;;;;;4.70;86.95;103359.88;5030898;28;20018;-40
2022/01/28 07:27:22;;;;;;;25.77;3.40;;;;;;;4.67;87.28;103365.38;5032510;28;20029;-42
2022/01/28 07:29:50;;;;;;;46.10;4.50;;;;;;;4.67;86.95;103362.72;5031403;28;20112;-40
2022/01/28 07:32:15;;;;;;;31.23;2.70;;;;;;;4.67;87.33;103362.72;5031199;28;20406;-41
2022/01/28 07:34:41;;;;;;;24.67;2.60;;;;;;;4.67;87.23;103369.84;5031194;28;20287;-41
2022/01/28 07:37:06;;;;;;;23.27;2.95;;;;;;;4.66;87.46;103368.13;5025723;28;21598;-41
2022/01/28 07:39:31;;;;;;;29.42;3.85;;;;;;;4.67;87.51;103370.72;5013871;28;20061;-41
2022/01/28 07:41:57;;;;;;;42.25;4.13;;;;;;;4.70;87.40;103380.34;5017990;28;20061;-40
2022/01/28 07:44:22;;;;;;;35.28;4.32;;;;;;;4.69;87.20;103386.66;5031283;28;20033;-41
2022/01/28 07:46:48;;;;;;;29.17;3.97;;;;;;;4.68;87.32;103398.25;5025749;28;20022;-41
2022/01/28 07:49:13;;;;;;;30.92;4.53;;;;;;;4.67;87.78;103396.53;5018931;28;20030;-41
2022/01/28 07:51:40;;;;;;;31.25;3.70;;;;;;;4.70;87.97;103393.69;5020862;28;20032;-41
2022/01/28 07:54:06;;;;;;;34.75;5.18;;;;;;;4.71;87.85;103406.94;5019056;28;20056;-40
2022/01/28 07:56:31;;;;;;;30.55;3.83;;;;;;;4.73;87.84;103409.53;5030448;28;20481;-40
2022/01/28 07:58:56;;;;;;;29.88;2.85;;;;;;;4.80;87.89;103398.47;5030579;28;20033;-40
2022/01/28 08:01:22;;;;;;;24.33;3.70;;;;;;;4.93;88.15;103406.69;5031315;28;20425;-40
2022/01/28 08:03:47;;;;;;;32.20;3.63;;;;;;;5.11;87.67;103417.28;5030412;28;20025;-40
2022/01/28 08:06:12;;;;;;;32.85;3.53;;;;;;;5.28;86.44;103419.91;5026636;28;20490;-40
2022/01/28 08:08:38;;;;;;;33.58;3.47;;;;;;;5.47;85.80;103414.41;5016548;28;20101;-40
2022/01/28 08:11:03;;;;;;;31.90;3.88;;;;;;;5.75;84.92;103408.41;5024774;28;20443;-40
2022/01/28 08:13:28;;;;;;;29.55;3.25;;;;;;;6.03;83.34;103413.06;5031752;28;20102;-40
2022/01/28 08:15:54;;;;;;;31.80;3.58;;;;;;;6.22;82.22;103415.50;5030881;28;20052;-40
2022/01/28 08:18:19;;;;;;;25.35;4.32;;;;;;;6.30;81.63;103417.72;5026551;28;20040;-41
2022/01/28 08:20:46;;;;;;;35.83;3.38;;;;;;;6.51;81.42;103424.47;5016734;28;20108;-41
2022/01/28 08:23:12;;;;;;;36.17;3.28;;;;;;;6.87;80.49;103425.00;5028200;28;20045;-41
2022/01/28 08:25:37;;;;;;;33.35;4.43;;;;;;;7.21;79.52;103423.75;5027035;28;20033;-41
2022/01/28 08:28:04;;;;;;;22.23;2.67;;;;;;;7.59;77.90;103437.41;5030708;28;20087;-40
2022/01/28 08:30:30;;;;;;;29.05;3.83;;;;;;;8.01;76.26;103426.66;5028483;28;20041;-41
2022/01/28 08:32:56;;;;;;;30.58;4.75;;;;;;;8.61;74.27;103428.00;5029117;28;20037;-40
2022/01/28 08:35:29;;;;;;;37.50;4.28;;;;;;;9.29;72.02;103435.72;5029544;28;20295;-41
2022/01/28 08:37:56;;;;;;;37.53;4.07;;;;;;;9.80;69.81;103435.63;5031762;28;20350;-41
2022/01/28 08:40:21;;;;;;;34.85;4.55;;;;;;;10.28;68.20;103445.53;5030003;28;20036;-41
2022/01/28 08:42:47;;;;;;;37.75;5.05;;;;;;;10.81;66.08;103440.53;5033289;28;20045;-41
2022/01/28 08:45:12;;;;;;;40.83;5.00;;;;;;;11.15;64.96;103438.75;5026498;28;20026;-42
2022/01/28 08:47:37;;;;;;;41.42;5.45;;;;;;;11.37;63.83;103445.09;5031403;28;20029;-41
2022/01/28 08:50:03;;;;;;;46.92;5.72;;;;;;;11.09;63.70;103441.09;5031556;28;20022;-41
2022/01/28 08:52:29;;;;;;;46.40;4.80;;;;;;;10.66;64.68;103430.97;5026274;28;20033;-41
2022/01/28 08:54:54;;;;;;;47.58;11.57;;;;;;;10.19;65.86;103439.00;5030868;28;20379;-41
2022/01/28 08:57:20;;;;;;;45.13;9.05;;;;;;;9.60;68.50;103444.28;5028790;28;20087;-40
2022/01/28 08:59:45;;;;;;;36.35;8.50;;;;;;;9.48;70.08;103439.78;5028438;28;20385;-41
2022/01/28 09:02:11;;;;;;;40.53;5.70;;;;;;;10.15;69.54;103445.56;5026649;28;20034;-41
2022/01/28 09:04:37;;;;;;;40.08;5.20;;;;;;;10.81;65.82;103439.69;5034358;28;20029;-41
2022/01/28 09:07:03;;;;;;;42.30;5.25;;;;;;;11.39;63.94;103446.69;5033356;28;20021;-43
2022/01/28 09:09:29;;;;;;;48.55;4.78;;;;;;;11.81;62.00;103454.13;5021626;28;20041;-41
2022/01/28 09:12:07;;;;;;;35.97;5.05;;;;;;;12.26;60.93;103456.72;5026271;28;20432;-41
2022/01/28 09:14:33;;;;;;;32.92;4.72;;;;;;;13.03;58.65;103463.63;5033600;28;20044;-41
2022/01/28 09:16:58;;;;;;;36.28;5.25;;;;;;;13.38;57.44;103469.56;5032276;28;20037;-41
2022/01/28 09:19:24;;;;;;;30.33;4.10;;;;;;;13.52;56.43;103471.00;5029386;28;20048;-41
2022/01/28 09:21:50;;;;;;;43.15;4.93;;;;;;;13.63;55.53;103470.06;5026300;28;20021;-41
2022/01/28 09:24:15;;;;;;;32.95;5.65;;;;;;;14.23;54.71;103476.28;5033642;28;20494;-41
2022/01/28 09:26:41;;;;;;;34.05;4.93;;;;;;;14.44;53.63;103472.59;5016133;28;20117;-41
2022/01/28 09:29:06;;;;;;;50.88;5.00;;;;;;;14.36;53.77;103476.00;5015603;28;20030;-42
2022/01/28 09:31:31;;;;;;;28.90;4.68;;;;;;;14.39;53.98;103467.59;5018861;28;20033;-42
2022/01/28 09:33:57;;;;;;;29.02;4.60;;;;;;;14.38;53.07;103473.16;5031746;28;20041;-41
2022/01/28 09:36:22;;;;;;;31.88;4.10;;;;;;;14.35;53.43;103479.72;5035467;28;20061;-42
2022/01/28 09:38:48;;;;;;;28.10;3.13;;;;;;;14.30;51.34;103473.88;5034176;28;20025;-41
2022/01/28 09:41:15;;;;;;;31.00;4.53;;;;;;;13.51;54.06;103474.72;5034394;28;20481;-41
2022/01/28 09:43:43;;;;;;;26.23;2.80;;;;;;;12.74;56.29;103475.13;5034684;28;20041;-41
2022/01/28 09:46:08;;;;;;;31.98;4.22;;;;;;;12.42;57.47;103477.88;5033312;28;20029;-40
2022/01/28 09:48:34;;;;;;;25.40;3.45;;;;;;;12.36;57.00;103471.16;5034243;28;20026;-41
2022/01/28 09:51:00;;;;;;;21.65;2.70;;;;;;;12.40;57.41;103467.22;5035320;28;20044;-40
2022/01/28 09:53:26;;;;;;;29.23;3.25;;;;;;;11.89;58.02;103459.78;5025232;28;20035;-41
2022/01/28 09:55:52;;;;;;;37.03;3.58;;;;;;;11.37;59.32;103450.50;5028488;28;20561;-40
2022/01/28 09:58:18;;;;;;;26.25;2.40;;;;;;;11.13;60.09;103462.25;5031065;28;20037;-42
2022/01/28 10:00:43;;;;;;;29.95;2.47;;;;;;;10.96;60.27;103463.59;5030430;28;20029;-42
2022/01/28 10:03:11;;;;;;;31.95;2.47;;;;;;;10.79;61.44;103460.50;5026646;28;20029;-42
2022/01/28 10:05:40;;;;;;;26.83;2.60;;;;;;;10.88;62.33;103455.25;5021856;28;20044;-41
2022/01/28 10:08:26;;;;;;;22.35;2.47;;;;;;;11.28;59.91;103459.34;5033317;28;20025;-40
2022/01/28 10:11:14;;;;;;;31.05;2.50;;;;;;;11.63;60.39;103461.88;5033078;28;20021;-41
2022/01/28 10:13:48;;;;;;;28.52;2.67;;;;;;;11.98;59.40;103456.34;5027555;28;20029;-41
2022/01/28 10:16:16;;;;;;;42.50;2.22;;;;;;;12.06;58.29;103453.84;5034485;28;20100;-43
2022/01/28 10:18:44;;;;;;;43.85;2.75;;;;;;;12.03;58.81;103475.72;5034439;28;20040;-42
2022/01/28 10:21:29;;;;;;;30.30;2.90;;;;;;;12.32;58.10;103475.09;5033004;28;20028;-41
2022/01/28 10:24:02;;;;;;;27.38;3.53;;;;;;;12.46;59.08;103480.19;5032751;28;20426;-42
2022/01/28 10:26:43;;;;;;;23.75;3.47;;;;;;;12.63;58.69;103473.34;5032907;28;20493;-41
2022/01/28 10:29:26;;;;;;;28.15;2.63;;;;;;;12.01;58.97;103479.50;5017337;28;20034;-41
2022/01/28 10:31:55;;;;;;;31.85;3.10;;;;;;;11.67;59.75;103478.69;5032117;28;20586;-41
2022/01/28 10:34:25;;;;;;;26.58;2.75;;;;;;;11.57;60.78;103476.72;5032243;28;20430;-41
2022/01/28 10:37:06;;;;;;;22.02;2.67;;;;;;;11.70;60.84;103478.44;5032531;28;20075;-41
2022/01/28 10:39:43;;;;;;;31.92;2.80;;;;;;;11.55;60.43;103473.28;5032777;28;20033;-41
2022/01/28 10:42:10;;;;;;;29.63;2.63;;;;;;;11.71;61.22;103474.75;5015200;28;20069;-41
2022/01/28 10:44:56;;;;;;;31.52;2.97;;;;;;;11.96;60.86;103479.88;5026838;28;20033;-41
2022/01/28 10:47:34;;;;;;;35.42;3.55;;;;;;;12.04;60.18;103473.84;5028804;28;20087;-41
2022/01/28 10:50:00;;;;;;;49.35;4.30;;;;;;;12.12;59.91;103470.53;5028826;28;20162;-41
2022/01/28 10:52:33;;;;;;;29.30;4.05;;;;;;;12.03;59.72;103469.44;5028840;28;20371;-40
2022/01/28 10:54:59;;;;;;;22.65;2.80;;;;;;;11.83;59.42;103476.44;5026063;28;20061;-41
2022/01/28 10:57:24;;;;;;;28.90;3.53;;;;;;;12.05;58.84;103468.31;5029700;28;20355;-41
2022/01/28 10:59:50;;;;;;;27.83;3.20;;;;;;;11.76;59.88;103478.78;5030105;28;20040;-40
2022/01/28 11:02:15;;;;;;;24.90;3.45;;;;;;;11.74;60.51;103477.19;5032634;28;20492;-41
2022/01/28 11:04:42;;;;;;;30.40;2.80;;;;;;;11.79;60.78;103469.56;5030600;28;20065;-42
2022/01/28 11:07:07;;;;;;;24.02;2.65;;;;;;;12.07;60.36;103469.06;5036353;28;20025;-41
2022/01/28 11:09:32;;;;;;;29.38;3.53;;;;;;;12.10;58.85;103459.84;5030096;28;20412;-42
2022/01/28 11:12:00;;;;;;;24.05;3.13;;;;;;;12.22;59.34;103458.81;5030590;28;20037;-40
2022/01/28 11:14:25;;;;;;;38.30;3.65;;;;;;;12.89;57.76;103457.59;5033173;28;20089;-40
2022/01/28 11:16:51;;;;;;;30.52;3.08;;;;;;;12.35;58.10;103446.97;5033297;28;20034;-41
2022/01/28 11:19:18;;;;;;;29.77;3.47;;;;;;;11.69;59.25;103445.22;5033199;28;20029;-41
2022/01/28 11:21:49;;;;;;;34.92;5.43;;;;;;;11.39;60.92;103437.75;5032209;28;20022;-41
2022/01/28 11:24:35;;;;;;;33.67;3.45;;;;;;;11.28;61.87;103435.06;5032959;28;20036;-41
2022/01/28 11:27:07;;;;;;;38.58;4.13;;;;;;;10.87;62.82;103437.38;5031571;28;20029;-41
2022/01/28 11:29:33;;;;;;;23.90;3.35;;;;;;;10.56;64.11;103430.84;5031759;28;20040;-41
2022/01/28 11:32:18;;;;;;;27.83;3.83;;;;;;;10.50;65.49;103436.69;5032369;28;20521;-41
2022/01/28 11:35:03;;;;;;;34.40;4.22;;;;;;;10.68;65.54;103432.56;5039871;28;20512;-41
2022/01/28 11:37:30;;;;;;;26.17;3.63;;;;;;;10.97;64.35;103432.97;5039268;28;20282;-42
2022/01/28 11:40:13;;;;;;;30.80;5.07;;;;;;;11.52;63.27;103427.69;5053791;28;20388;-41
2022/01/28 11:42:38;;;;;;;33.80;4.05;;;;;;;11.50;62.84;103418.00;5025993;28;20053;-41
2022/01/28 11:45:06;;;;;;;36.45;4.40;;;;;;;11.96;62.50;103416.97;5020888;28;20022;-41
2022/01/28 11:47:59;;;;;;;34.63;3.75;;;;;;;12.31;60.59;103422.09;5029897;28;20129;-41
2022/01/28 11:50:25;;;;;;;32.95;3.80;;;;;;;12.86;60.09;103419.19;5017850;28;20060;-41
2022/01/28 11:52:52;;;;;;;28.17;3.80;;;;;;;13.22;58.80;103419.59;5030921;28;20025;-40
2022/01/28 11:55:17;;;;;;;28.47;3.80;;;;;;;13.96;55.65;103419.28;5027475;28;20026;-41
2022/01/28 11:58:04;;;;;;;38.10;4.22;;;;;;;14.07;54.51;103416.41;5016515;28;20549;-41
2022/01/28 12:00:40;;;;;;;29.97;4.50;;;;;;;13.61;55.39;103409.78;5019480;28;20103;-41
2022/01/28 12:03:15;;;;;;;34.73;4.60;;;;;;;12.68;57.15;103403.56;5026109;28;20075;-41
2022/01/28 12:05:40;;;;;;;42.42;4.78;;;;;;;12.45;59.74;103397.47;5029785;28;20284;-41
2022/01/28 12:08:06;;;;;;;42.60;4.70;;;;;;;12.31;59.42;103395.06;5030341;28;20455;-40
2022/01/28 12:10:33;;;;;;;41.25;5.30;;;;;;;12.06;61.92;103394.47;5030140;28;20517;-42
2022/01/28 12:13:00;;;;;;;43.38;4.78;;;;;;;12.52;62.00;103387.81;5029475;28;20034;-41
2022/01/28 12:15:31;;;;;;;33.60;5.82;;;;;;;13.29;59.15;103378.38;5036896;28;20531;-41
2022/01/28 12:18:09;;;;;;;30.88;4.50;;;;;;;13.42;58.34;103371.88;5031309;28;20062;-40
2022/01/28 12:20:53;;;;;;;33.80;4.88;;;;;;;13.21;57.84;103370.09;5030955;28;20048;-40
2022/01/28 12:23:18;;;;;;;34.88;5.63;;;;;;;13.43;57.89;103373.59;5030673;28;20025;-41
2022/01/28 12:25:44;;;;;;;24.83;4.70;;;;;;;13.27;56.31;103363.28;5031888;28;20032;-41
2022/01/28 12:28:24;;;;;;;33.53;4.63;;;;;;;12.54;56.30;103354.44;5031769;28;20040;-40
2022/01/28 12:31:00;;;;;;;31.45;4.40;;;;;;;11.38;59.42;103347.06;5031373;28;20044;-40
2022/01/28 12:33:28;;;;;;;25.73;3.97;;;;;;;10.51;61.98;103338.78;5028717;28;20113;-41
2022/01/28 12:35:56;;;;;;;26.42;4.18;;;;;;;10.22;63.31;103328.41;5021827;28;20116;-41
2022/01/28 12:38:24;;;;;;;;;;;;;;;10.19;63.69;103331.34;5026223;28;20438;-42
2022/01/28 12:40:52;;;;;;;25.67;3.90;;;;;;;9.83;64.44;103327.78;5017935;28;20007;-41
2022/01/28 12:43:23;;;;;;;39.10;4.13;;;;;;;9.98;65.26;103324.91;5023749;28;20049;-41